sensor_id;sensor_type;location;lat;lon;timestamp;pressure;altitude;pressure_sealevel;temperature;humidity
20710;BME280;10516;51.518;9.864;2023-06-10T00:02:02;98807.88;;;18.76;56.62
20710;BME280;10516;51.518;9.864;2023-06-10T00:04:28;98806.97;;;18.53;57.40
20710;BME280;10516;51.518;9.864;2023-06-10T00:06:54;98810.31;;;18.05;57.03
20710;BME280;10516;51.518;9.864;2023-06-10T00:09:20;98790.34;;;18.46;57.57
20710;BME280;10516;51.518;9.864;2023-06-10T00:11:46;98801.97;;;18.60;57.45
20710;BME280;10516;51.518;9.864;2023-06-10T00:14:12;98807.47;;;18.83;57.25
20710;BME280;10516;51.518;9.864;2023-06-10T00:16:37;98809.03;;;18.97;56.64
20710;BME280;10516;51.518;9.864;2023-06-10T00:19:04;98805.44;;;18.88;56.87
20710;BME280;10516;51.518;9.864;2023-06-10T00:21:31;98811.66;;;18.89;57.00
20710;BME280;10516;51.518;9.864;2023-06-10T00:24:03;98808.06;;;18.93;56.46
20710;BME280;10516;51.518;9.864;2023-06-10T00:26:30;98796.13;;;18.81;57.29
20710;BME280;10516;51.518;9.864;2023-06-10T00:28:55;98808.06;;;18.80;57.36
20710;BME280;10516;51.518;9.864;2023-06-10T00:31:21;98806.16;;;18.80;57.21
20710;BME280;10516;51.518;9.864;2023-06-10T00:33:46;98803.56;;;18.75;57.81
20710;BME280;10516;51.518;9.864;2023-06-10T00:36:11;98807.16;;;18.70;57.74
20710;BME280;10516;51.518;9.864;2023-06-10T00:38:37;98810.88;;;18.75;57.90
20710;BME280;10516;51.518;9.864;2023-06-10T00:41:02;98810.78;;;18.66;58.27
20710;BME280;10516;51.518;9.864;2023-06-10T00:43:27;98817.38;;;18.74;58.15
20710;BME280;10516;51.518;9.864;2023-06-10T00:45:53;98813.47;;;18.66;57.86
20710;BME280;10516;51.518;9.864;2023-06-10T00:48:18;98800.78;;;18.53;58.45
20710;BME280;10516;51.518;9.864;2023-06-10T00:50:46;98811.44;;;18.31;58.62
20710;BME280;10516;51.518;9.864;2023-06-10T00:53:12;98814.91;;;18.50;58.53
20710;BME280;10516;51.518;9.864;2023-06-10T00:55:37;98800.72;;;18.39;58.47
20710;BME280;10516;51.518;9.864;2023-06-10T00:58:03;98811.25;;;18.41;58.94
20710;BME280;10516;51.518;9.864;2023-06-10T01:00:29;98805.53;;;18.42;58.24
20710;BME280;10516;51.518;9.864;2023-06-10T01:02:54;98800.94;;;18.43;58.83
20710;BME280;10516;51.518;9.864;2023-06-10T01:05:20;98792.13;;;18.37;58.77
20710;BME280;10516;51.518;9.864;2023-06-10T01:08:06;98806.25;;;18.34;59.16
20710;BME280;10516;51.518;9.864;2023-06-10T01:10:38;98788.63;;;18.23;59.09
20710;BME280;10516;51.518;9.864;2023-06-10T01:13:07;98800.53;;;18.36;59.06
20710;BME280;10516;51.518;9.864;2023-06-10T01:15:37;98804.25;;;18.40;58.96
20710;BME280;10516;51.518;9.864;2023-06-10T01:18:04;98801.34;;;18.36;59.68
20710;BME280;10516;51.518;9.864;2023-06-10T01:20:31;98803.34;;;18.31;59.37
20710;BME280;10516;51.518;9.864;2023-06-10T01:22:58;98804.22;;;18.26;59.73
20710;BME280;10516;51.518;9.864;2023-06-10T01:25:25;98803.34;;;18.17;60.22
20710;BME280;10516;51.518;9.864;2023-06-10T01:31:16;98808.72;;;18.04;60.10
20710;BME280;10516;51.518;9.864;2023-06-10T01:33:43;98810.81;;;17.93;60.96
20710;BME280;10516;51.518;9.864;2023-06-10T01:36:12;98812.56;;;17.84;60.62
20710;BME280;10516;51.518;9.864;2023-06-10T01:38:43;98808.63;;;17.76;61.21
20710;BME280;10516;51.518;9.864;2023-06-10T01:41:10;98801.66;;;17.75;61.35
20710;BME280;10516;51.518;9.864;2023-06-10T01:43:40;98804.69;;;17.87;61.04
20710;BME280;10516;51.518;9.864;2023-06-10T01:46:06;98805.91;;;17.95;60.49
20710;BME280;10516;51.518;9.864;2023-06-10T01:48:32;98811.78;;;17.83;61.08
20710;BME280;10516;51.518;9.864;2023-06-10T01:50:58;98806.06;;;17.85;61.02
20710;BME280;10516;51.518;9.864;2023-06-10T01:53:23;98818.69;;;17.89;60.90
20710;BME280;10516;51.518;9.864;2023-06-10T01:55:49;98815.50;;;18.01;60.71
20710;BME280;10516;51.518;9.864;2023-06-10T01:58:14;98806.59;;;18.01;60.91
20710;BME280;10516;51.518;9.864;2023-06-10T02:00:40;98806.41;;;17.97;60.77
20710;BME280;10516;51.518;9.864;2023-06-10T02:03:05;98817.38;;;17.87;61.08
20710;BME280;10516;51.518;9.864;2023-06-10T02:05:31;98806.56;;;17.73;61.29
20710;BME280;10516;51.518;9.864;2023-06-10T02:07:56;98809.97;;;17.79;62.18
20710;BME280;10516;51.518;9.864;2023-06-10T02:10:22;98807.56;;;17.77;61.53
20710;BME280;10516;51.518;9.864;2023-06-10T02:12:47;98812.97;;;17.77;62.28
20710;BME280;10516;51.518;9.864;2023-06-10T02:15:12;98813.16;;;17.81;61.73
20710;BME280;10516;51.518;9.864;2023-06-10T02:17:38;98821.94;;;17.73;61.56
20710;BME280;10516;51.518;9.864;2023-06-10T02:20:04;98824.59;;;17.59;62.07
20710;BME280;10516;51.518;9.864;2023-06-10T02:22:32;98825.28;;;17.65;62.07
20710;BME280;10516;51.518;9.864;2023-06-10T02:24:58;98817.28;;;17.60;61.99
20710;BME280;10516;51.518;9.864;2023-06-10T02:27:23;98835.13;;;17.74;61.87
20710;BME280;10516;51.518;9.864;2023-06-10T02:29:49;98835.22;;;17.69;61.73
20710;BME280;10516;51.518;9.864;2023-06-10T02:32:15;98834.06;;;17.57;62.27
20710;BME280;10516;51.518;9.864;2023-06-10T02:34:40;98845.59;;;17.62;62.32
20710;BME280;10516;51.518;9.864;2023-06-10T02:37:08;98834.56;;;17.59;62.52
20710;BME280;10516;51.518;9.864;2023-06-10T02:39:33;98822.25;;;17.34;62.36
20710;BME280;10516;51.518;9.864;2023-06-10T02:41:58;98833.06;;;17.53;62.54
20710;BME280;10516;51.518;9.864;2023-06-10T02:44:24;98837.72;;;17.47;62.45
20710;BME280;10516;51.518;9.864;2023-06-10T02:46:49;98835.91;;;17.43;62.50
20710;BME280;10516;51.518;9.864;2023-06-10T02:49:15;98845.06;;;17.42;62.41
20710;BME280;10516;51.518;9.864;2023-06-10T02:51:41;98855.28;;;17.45;62.49
20710;BME280;10516;51.518;9.864;2023-06-10T02:54:06;98845.88;;;17.42;62.35
20710;BME280;10516;51.518;9.864;2023-06-10T02:56:32;98852.34;;;17.41;62.71
20710;BME280;10516;51.518;9.864;2023-06-10T02:58:58;98841.16;;;17.34;63.27
20710;BME280;10516;51.518;9.864;2023-06-10T03:01:24;98853.03;;;17.33;63.05
20710;BME280;10516;51.518;9.864;2023-06-10T03:03:49;98846.69;;;17.43;62.72
20710;BME280;10516;51.518;9.864;2023-06-10T03:06:15;98840.84;;;17.36;62.52
20710;BME280;10516;51.518;9.864;2023-06-10T03:08:41;98825.41;;;17.22;62.76
20710;BME280;10516;51.518;9.864;2023-06-10T03:11:06;98838.00;;;17.27;63.32
20710;BME280;10516;51.518;9.864;2023-06-10T03:13:32;98842.81;;;17.30;63.20
20710;BME280;10516;51.518;9.864;2023-06-10T03:15:57;98834.50;;;17.27;63.31
20710;BME280;10516;51.518;9.864;2023-06-10T03:18:27;98834.81;;;17.25;62.95
20710;BME280;10516;51.518;9.864;2023-06-10T03:20:53;98828.22;;;17.12;63.19
20710;BME280;10516;51.518;9.864;2023-06-10T03:23:19;98845.34;;;17.21;63.42
20710;BME280;10516;51.518;9.864;2023-06-10T03:25:44;98833.25;;;17.19;63.16
20710;BME280;10516;51.518;9.864;2023-06-10T03:28:10;98835.53;;;17.12;63.39
20710;BME280;10516;51.518;9.864;2023-06-10T03:30:36;98831.72;;;17.13;63.08
20710;BME280;10516;51.518;9.864;2023-06-10T03:33:01;98839.00;;;17.12;63.57
20710;BME280;10516;51.518;9.864;2023-06-10T03:35:26;98845.66;;;17.20;63.80
20710;BME280;10516;51.518;9.864;2023-06-10T03:37:52;98837.94;;;17.13;63.76
20710;BME280;10516;51.518;9.864;2023-06-10T03:40:17;98844.50;;;17.07;63.38
20710;BME280;10516;51.518;9.864;2023-06-10T03:42:43;98839.97;;;17.21;63.28
20710;BME280;10516;51.518;9.864;2023-06-10T03:45:09;98848.72;;;17.13;63.99
20710;BME280;10516;51.518;9.864;2023-06-10T03:47:36;98834.72;;;17.11;64.13
20710;BME280;10516;51.518;9.864;2023-06-10T03:50:05;98849.53;;;17.14;63.99
20710;BME280;10516;51.518;9.864;2023-06-10T03:52:31;98847.53;;;17.19;63.48
20710;BME280;10516;51.518;9.864;2023-06-10T03:54:56;98841.63;;;17.17;63.78
20710;BME280;10516;51.518;9.864;2023-06-10T03:57:22;98841.88;;;17.21;64.18
20710;BME280;10516;51.518;9.864;2023-06-10T03:59:47;98850.69;;;17.27;63.56
20710;BME280;10516;51.518;9.864;2023-06-10T04:02:13;98847.09;;;17.12;64.01
20710;BME280;10516;51.518;9.864;2023-06-10T04:04:38;98841.56;;;17.22;63.92
20710;BME280;10516;51.518;9.864;2023-06-10T04:07:04;98857.97;;;17.26;63.89
20710;BME280;10516;51.518;9.864;2023-06-10T04:09:30;98855.22;;;17.31;63.88
20710;BME280;10516;51.518;9.864;2023-06-10T04:11:55;98851.03;;;17.39;64.12
20710;BME280;10516;51.518;9.864;2023-06-10T04:14:21;98843.41;;;17.27;64.77
20710;BME280;10516;51.518;9.864;2023-06-10T04:16:46;98845.75;;;17.34;63.76
20710;BME280;10516;51.518;9.864;2023-06-10T04:19:12;98850.84;;;17.35;63.98
20710;BME280;10516;51.518;9.864;2023-06-10T04:21:37;98859.13;;;17.39;64.49
20710;BME280;10516;51.518;9.864;2023-06-10T04:24:03;98852.63;;;17.02;65.24
20710;BME280;10516;51.518;9.864;2023-06-10T04:26:28;98838.34;;;17.39;64.27
20710;BME280;10516;51.518;9.864;2023-06-10T04:28:53;98836.41;;;17.07;64.87
20710;BME280;10516;51.518;9.864;2023-06-10T04:31:22;98852.41;;;16.28;67.07
20710;BME280;10516;51.518;9.864;2023-06-10T04:33:47;98857.06;;;16.93;66.36
20710;BME280;10516;51.518;9.864;2023-06-10T04:36:13;98856.44;;;16.78;66.27
20710;BME280;10516;51.518;9.864;2023-06-10T04:38:39;98859.44;;;16.53;67.65
20710;BME280;10516;51.518;9.864;2023-06-10T04:41:06;98839.13;;;16.60;67.24
20710;BME280;10516;51.518;9.864;2023-06-10T04:43:31;98852.84;;;16.40;67.32
20710;BME280;10516;51.518;9.864;2023-06-10T04:45:56;98844.44;;;16.41;67.73
20710;BME280;10516;51.518;9.864;2023-06-10T04:48:22;98856.94;;;16.32;68.20
20710;BME280;10516;51.518;9.864;2023-06-10T04:50:50;98870.22;;;16.76;67.16
20710;BME280;10516;51.518;9.864;2023-06-10T04:53:16;98849.31;;;16.68;67.05
20710;BME280;10516;51.518;9.864;2023-06-10T04:55:41;98851.88;;;16.78;67.29
20710;BME280;10516;51.518;9.864;2023-06-10T04:58:07;98859.59;;;17.27;65.51
20710;BME280;10516;51.518;9.864;2023-06-10T05:00:32;98857.84;;;17.36;65.19
20710;BME280;10516;51.518;9.864;2023-06-10T05:02:58;98854.69;;;17.29;65.81
20710;BME280;10516;51.518;9.864;2023-06-10T05:05:23;98865.13;;;17.36;65.84
20710;BME280;10516;51.518;9.864;2023-06-10T05:07:48;98854.00;;;16.58;67.00
20710;BME280;10516;51.518;9.864;2023-06-10T05:10:14;98858.34;;;16.54;68.20
20710;BME280;10516;51.518;9.864;2023-06-10T05:12:40;98857.03;;;16.75;67.79
20710;BME280;10516;51.518;9.864;2023-06-10T05:15:06;98864.78;;;16.29;69.03
20710;BME280;10516;51.518;9.864;2023-06-10T05:17:32;98881.19;;;16.32;69.12
20710;BME280;10516;51.518;9.864;2023-06-10T05:19:57;98880.88;;;16.63;68.02
20710;BME280;10516;51.518;9.864;2023-06-10T05:22:23;98879.59;;;16.31;67.63
20710;BME280;10516;51.518;9.864;2023-06-10T05:24:50;98883.06;;;16.61;68.23
20710;BME280;10516;51.518;9.864;2023-06-10T05:27:16;98876.34;;;16.58;67.92
20710;BME280;10516;51.518;9.864;2023-06-10T05:29:41;98868.19;;;16.87;67.65
20710;BME280;10516;51.518;9.864;2023-06-10T05:32:07;98892.38;;;17.15;67.19
20710;BME280;10516;51.518;9.864;2023-06-10T05:34:33;98879.78;;;17.30;66.25
20710;BME280;10516;51.518;9.864;2023-06-10T05:36:58;98882.72;;;16.10;68.66
20710;BME280;10516;51.518;9.864;2023-06-10T05:39:24;98882.66;;;16.20;69.15
20710;BME280;10516;51.518;9.864;2023-06-10T05:41:49;98901.47;;;15.91;70.37
20710;BME280;10516;51.518;9.864;2023-06-10T05:44:15;98896.16;;;16.15;69.70
20710;BME280;10516;51.518;9.864;2023-06-10T05:46:40;98890.44;;;16.21;70.20
20710;BME280;10516;51.518;9.864;2023-06-10T05:49:06;98886.69;;;15.89;70.12
20710;BME280;10516;51.518;9.864;2023-06-10T05:51:31;98887.16;;;16.01;70.83
20710;BME280;10516;51.518;9.864;2023-06-10T05:53:56;98888.03;;;16.20;70.54
20710;BME280;10516;51.518;9.864;2023-06-10T05:56:22;98888.13;;;16.38;70.22
20710;BME280;10516;51.518;9.864;2023-06-10T05:58:48;98895.84;;;16.74;69.16
20710;BME280;10516;51.518;9.864;2023-06-10T06:01:13;98892.00;;;17.03;68.13
20710;BME280;10516;51.518;9.864;2023-06-10T06:03:39;98886.97;;;16.97;68.87
20710;BME280;10516;51.518;9.864;2023-06-10T06:06:05;98893.22;;;16.92;68.73
20710;BME280;10516;51.518;9.864;2023-06-10T06:08:30;98903.22;;;16.68;69.02
20710;BME280;10516;51.518;9.864;2023-06-10T06:10:56;98900.44;;;16.73;68.89
20710;BME280;10516;51.518;9.864;2023-06-10T06:13:21;98905.13;;;16.63;69.68
20710;BME280;10516;51.518;9.864;2023-06-10T06:15:47;98885.53;;;16.57;69.36
20710;BME280;10516;51.518;9.864;2023-06-10T06:18:12;98862.47;;;16.70;68.26
20710;BME280;10516;51.518;9.864;2023-06-10T06:20:38;98891.00;;;17.60;66.21
20710;BME280;10516;51.518;9.864;2023-06-10T06:23:03;98876.38;;;17.43;68.14
20710;BME280;10516;51.518;9.864;2023-06-10T06:25:29;98893.53;;;18.03;65.69
20710;BME280;10516;51.518;9.864;2023-06-10T06:27:54;98888.56;;;18.10;65.81
20710;BME280;10516;51.518;9.864;2023-06-10T06:30:19;98890.75;;;17.75;67.20
20710;BME280;10516;51.518;9.864;2023-06-10T06:32:45;98887.06;;;16.87;67.30
20710;BME280;10516;51.518;9.864;2023-06-10T06:35:10;98881.81;;;17.19;67.53
20710;BME280;10516;51.518;9.864;2023-06-10T06:37:36;98884.13;;;17.25;67.83
20710;BME280;10516;51.518;9.864;2023-06-10T06:40:01;98885.84;;;17.77;66.55
20710;BME280;10516;51.518;9.864;2023-06-10T06:42:27;98890.16;;;17.78;65.31
20710;BME280;10516;51.518;9.864;2023-06-10T06:44:53;98894.91;;;17.68;66.81
20710;BME280;10516;51.518;9.864;2023-06-10T06:47:18;98903.00;;;17.86;66.25
20710;BME280;10516;51.518;9.864;2023-06-10T06:49:46;98883.66;;;17.42;66.90
20710;BME280;10516;51.518;9.864;2023-06-10T06:52:11;98888.84;;;17.76;66.46
20710;BME280;10516;51.518;9.864;2023-06-10T06:54:37;98902.31;;;17.94;67.17
20710;BME280;10516;51.518;9.864;2023-06-10T06:57:03;98896.97;;;18.08;66.18
20710;BME280;10516;51.518;9.864;2023-06-10T06:59:28;98901.56;;;17.75;66.17
20710;BME280;10516;51.518;9.864;2023-06-10T07:01:54;98901.13;;;17.68;66.66
20710;BME280;10516;51.518;9.864;2023-06-10T07:04:20;98897.59;;;17.49;67.68
20710;BME280;10516;51.518;9.864;2023-06-10T07:06:47;98912.88;;;18.10;67.90
20710;BME280;10516;51.518;9.864;2023-06-10T07:09:12;98908.25;;;17.78;67.18
20710;BME280;10516;51.518;9.864;2023-06-10T07:11:38;98905.03;;;17.76;67.37
20710;BME280;10516;51.518;9.864;2023-06-10T07:14:04;98894.09;;;18.64;65.17
20710;BME280;10516;51.518;9.864;2023-06-10T07:16:29;98908.91;;;18.53;65.07
20710;BME280;10516;51.518;9.864;2023-06-10T07:18:55;98908.63;;;18.36;66.63
20710;BME280;10516;51.518;9.864;2023-06-10T07:21:20;98908.56;;;18.41;66.68
20710;BME280;10516;51.518;9.864;2023-06-10T07:23:46;98918.78;;;18.12;66.37
20710;BME280;10516;51.518;9.864;2023-06-10T07:26:11;98908.44;;;18.32;65.60
20710;BME280;10516;51.518;9.864;2023-06-10T07:28:39;98904.91;;;18.64;65.10
20710;BME280;10516;51.518;9.864;2023-06-10T07:31:04;98911.59;;;18.53;64.91
20710;BME280;10516;51.518;9.864;2023-06-10T07:33:30;98923.03;;;19.18;65.49
20710;BME280;10516;51.518;9.864;2023-06-10T07:35:55;98934.06;;;19.08;65.75
20710;BME280;10516;51.518;9.864;2023-06-10T07:38:21;98921.44;;;18.90;66.02
20710;BME280;10516;51.518;9.864;2023-06-10T07:40:46;98920.41;;;19.26;64.69
20710;BME280;10516;51.518;9.864;2023-06-10T07:43:12;98919.94;;;18.97;65.16
20710;BME280;10516;51.518;9.864;2023-06-10T07:45:39;98916.75;;;18.95;65.87
20710;BME280;10516;51.518;9.864;2023-06-10T07:48:05;98923.16;;;19.13;66.26
20710;BME280;10516;51.518;9.864;2023-06-10T07:50:30;98926.09;;;19.66;64.13
20710;BME280;10516;51.518;9.864;2023-06-10T07:52:55;98917.44;;;19.64;67.16
20710;BME280;10516;51.518;9.864;2023-06-10T07:55:21;98922.41;;;19.84;67.07
20710;BME280;10516;51.518;9.864;2023-06-10T07:57:46;98921.31;;;19.49;65.27
20710;BME280;10516;51.518;9.864;2023-06-10T08:00:12;98920.75;;;18.98;66.19
20710;BME280;10516;51.518;9.864;2023-06-10T08:02:37;98919.94;;;18.97;66.76
20710;BME280;10516;51.518;9.864;2023-06-10T08:05:03;98918.84;;;19.97;66.61
20710;BME280;10516;51.518;9.864;2023-06-10T08:07:29;98923.31;;;19.79;64.46
20710;BME280;10516;51.518;9.864;2023-06-10T08:09:54;98923.88;;;19.90;64.63
20710;BME280;10516;51.518;9.864;2023-06-10T08:12:21;98908.69;;;19.44;65.30
20710;BME280;10516;51.518;9.864;2023-06-10T08:14:46;98916.75;;;19.72;66.02
20710;BME280;10516;51.518;9.864;2023-06-10T08:17:11;98913.25;;;19.58;66.50
20710;BME280;10516;51.518;9.864;2023-06-10T08:19:37;98913.19;;;20.60;63.94
20710;BME280;10516;51.518;9.864;2023-06-10T08:22:02;98921.25;;;20.21;63.98
20710;BME280;10516;51.518;9.864;2023-06-10T08:24:28;98925.63;;;20.08;64.13
20710;BME280;10516;51.518;9.864;2023-06-10T08:26:53;98899.69;;;20.68;62.85
20710;BME280;10516;51.518;9.864;2023-06-10T08:29:20;98914.28;;;20.50;64.46
20710;BME280;10516;51.518;9.864;2023-06-10T08:31:45;98915.00;;;20.42;65.22
20710;BME280;10516;51.518;9.864;2023-06-10T08:34:11;98903.44;;;20.50;64.38
20710;BME280;10516;51.518;9.864;2023-06-10T08:36:37;98903.13;;;21.56;60.37
20710;BME280;10516;51.518;9.864;2023-06-10T08:39:02;98900.81;;;21.07;63.34
20710;BME280;10516;51.518;9.864;2023-06-10T08:41:28;98914.28;;;20.50;64.76
20710;BME280;10516;51.518;9.864;2023-06-10T08:44:10;98915.38;;;20.49;65.25
20710;BME280;10516;51.518;9.864;2023-06-10T08:46:38;98908.44;;;20.35;65.36
20710;BME280;10516;51.518;9.864;2023-06-10T08:49:06;98910.56;;;21.08;66.24
20710;BME280;10516;51.518;9.864;2023-06-10T08:51:35;98899.41;;;21.18;64.46
20710;BME280;10516;51.518;9.864;2023-06-10T08:54:05;98900.75;;;20.98;65.37
20710;BME280;10516;51.518;9.864;2023-06-10T08:56:39;98905.63;;;21.10;64.72
20710;BME280;10516;51.518;9.864;2023-06-10T08:59:05;98905.03;;;20.90;63.50
20710;BME280;10516;51.518;9.864;2023-06-10T09:01:31;98904.28;;;20.99;62.92
20710;BME280;10516;51.518;9.864;2023-06-10T09:03:58;98910.28;;;21.43;62.39
20710;BME280;10516;51.518;9.864;2023-06-10T09:06:25;98909.16;;;22.47;59.09
20710;BME280;10516;51.518;9.864;2023-06-10T09:08:50;98903.78;;;21.96;61.47
20710;BME280;10516;51.518;9.864;2023-06-10T09:11:16;98905.41;;;21.88;61.30
20710;BME280;10516;51.518;9.864;2023-06-10T09:13:41;98911.84;;;22.64;61.36
20710;BME280;10516;51.518;9.864;2023-06-10T09:16:07;98900.72;;;21.63;62.30
20710;BME280;10516;51.518;9.864;2023-06-10T09:18:32;98909.34;;;21.48;62.08
20710;BME280;10516;51.518;9.864;2023-06-10T09:20:59;98906.94;;;21.38;62.71
20710;BME280;10516;51.518;9.864;2023-06-10T09:23:25;98905.88;;;21.73;62.33
20710;BME280;10516;51.518;9.864;2023-06-10T09:25:57;98906.00;;;21.77;62.63
20710;BME280;10516;51.518;9.864;2023-06-10T09:28:23;98900.28;;;22.76;59.68
20710;BME280;10516;51.518;9.864;2023-06-10T09:30:49;98896.91;;;22.70;60.24
20710;BME280;10516;51.518;9.864;2023-06-10T09:33:15;98893.50;;;22.35;62.54
20710;BME280;10516;51.518;9.864;2023-06-10T09:35:50;98883.81;;;22.64;60.76
20710;BME280;10516;51.518;9.864;2023-06-10T09:38:30;98883.81;;;23.01;59.92
20710;BME280;10516;51.518;9.864;2023-06-10T09:40:56;98894.63;;;22.81;60.73
20710;BME280;10516;51.518;9.864;2023-06-10T09:43:22;98890.88;;;22.48;62.49
20710;BME280;10516;51.518;9.864;2023-06-10T09:45:48;98892.19;;;22.42;61.27
20710;BME280;10516;51.518;9.864;2023-06-10T09:48:21;98886.94;;;22.36;61.88
20710;BME280;10516;51.518;9.864;2023-06-10T09:50:48;98886.41;;;22.52;61.44
20710;BME280;10516;51.518;9.864;2023-06-10T09:53:14;98888.16;;;22.65;61.38
20710;BME280;10516;51.518;9.864;2023-06-10T09:55:42;98880.56;;;23.08;60.66
20710;BME280;10516;51.518;9.864;2023-06-10T09:58:07;98880.72;;;22.82;59.57
20710;BME280;10516;51.518;9.864;2023-06-10T10:00:33;98882.38;;;23.25;60.21
20710;BME280;10516;51.518;9.864;2023-06-10T10:03:01;98878.03;;;23.32;59.84
20710;BME280;10516;51.518;9.864;2023-06-10T10:05:27;98872.06;;;23.09;60.10
20710;BME280;10516;51.518;9.864;2023-06-10T10:07:53;98888.06;;;23.11;60.45
20710;BME280;10516;51.518;9.864;2023-06-10T10:10:20;98882.59;;;23.69;60.50
20710;BME280;10516;51.518;9.864;2023-06-10T10:12:47;98886.75;;;24.08;58.15
20710;BME280;10516;51.518;9.864;2023-06-10T10:15:16;98877.81;;;23.46;59.15
20710;BME280;10516;51.518;9.864;2023-06-10T10:18:06;98873.34;;;24.15;58.10
20710;BME280;10516;51.518;9.864;2023-06-10T10:20:33;98874.19;;;23.54;59.36
20710;BME280;10516;51.518;9.864;2023-06-10T10:23:03;98876.66;;;23.18;60.25
20710;BME280;10516;51.518;9.864;2023-06-10T10:25:35;98881.97;;;23.14;59.86
20710;BME280;10516;51.518;9.864;2023-06-10T10:30:42;98863.31;;;23.54;58.01
20710;BME280;10516;51.518;9.864;2023-06-10T10:33:19;98872.69;;;23.98;58.99
20710;BME280;10516;51.518;9.864;2023-06-10T10:35:46;98877.00;;;23.45;60.01
20710;BME280;10516;51.518;9.864;2023-06-10T10:38:11;98873.06;;;23.55;60.13
20710;BME280;10516;51.518;9.864;2023-06-10T10:40:38;98874.72;;;23.89;59.57
20710;BME280;10516;51.518;9.864;2023-06-10T10:43:04;98877.16;;;24.35;59.44
20710;BME280;10516;51.518;9.864;2023-06-10T10:45:31;98867.31;;;24.67;57.85
20710;BME280;10516;51.518;9.864;2023-06-10T10:47:58;98868.38;;;24.98;58.75
20710;BME280;10516;51.518;9.864;2023-06-10T10:50:28;98861.66;;;24.96;57.12
20710;BME280;10516;51.518;9.864;2023-06-10T10:52:59;98864.44;;;24.51;58.34
20710;BME280;10516;51.518;9.864;2023-06-10T10:55:25;98867.81;;;24.36;57.97
20710;BME280;10516;51.518;9.864;2023-06-10T11:00:35;98857.28;;;25.83;56.08
20710;BME280;10516;51.518;9.864;2023-06-10T11:05:46;98854.75;;;25.90;56.15
20710;BME280;10516;51.518;9.864;2023-06-10T11:08:15;98846.41;;;25.86;55.89
20710;BME280;10516;51.518;9.864;2023-06-10T11:11:06;98838.66;;;24.97;53.96
20710;BME280;10516;51.518;9.864;2023-06-10T11:13:58;98854.88;;;25.29;54.96
20710;BME280;10516;51.518;9.864;2023-06-10T11:16:30;98845.22;;;25.32;55.46
20710;BME280;10516;51.518;9.864;2023-06-10T11:22:00;98840.09;;;25.98;52.65
20710;BME280;10516;51.518;9.864;2023-06-10T11:24:26;98824.91;;;26.44;51.69
20710;BME280;10516;51.518;9.864;2023-06-10T11:26:52;98831.47;;;26.86;50.98
20710;BME280;10516;51.518;9.864;2023-06-10T11:29:17;98832.94;;;26.99;51.07
20710;BME280;10516;51.518;9.864;2023-06-10T11:31:50;98841.16;;;27.69;49.86
20710;BME280;10516;51.518;9.864;2023-06-10T11:34:22;98825.44;;;26.65;49.53
20710;BME280;10516;51.518;9.864;2023-06-10T11:36:52;98823.25;;;27.36;51.10
20710;BME280;10516;51.518;9.864;2023-06-10T11:39:20;98839.22;;;26.68;50.95
20710;BME280;10516;51.518;9.864;2023-06-10T11:41:45;98838.06;;;26.69;50.66
20710;BME280;10516;51.518;9.864;2023-06-10T11:44:14;98827.09;;;27.01;46.49
20710;BME280;10516;51.518;9.864;2023-06-10T11:46:40;98826.31;;;27.00;48.76
20710;BME280;10516;51.518;9.864;2023-06-10T11:49:08;98825.41;;;27.66;51.05
20710;BME280;10516;51.518;9.864;2023-06-10T11:51:40;98825.66;;;28.18;50.12
20710;BME280;10516;51.518;9.864;2023-06-10T11:54:09;98812.75;;;28.41;46.18
20710;BME280;10516;51.518;9.864;2023-06-10T11:56:35;98825.34;;;28.23;45.45
20710;BME280;10516;51.518;9.864;2023-06-10T11:59:07;98804.69;;;27.68;44.97
20710;BME280;10516;51.518;9.864;2023-06-10T12:01:35;98809.88;;;27.73;47.86
20710;BME280;10516;51.518;9.864;2023-06-10T12:04:06;98810.31;;;27.75;50.15
20710;BME280;10516;51.518;9.864;2023-06-10T12:09:06;98816.59;;;27.57;49.97
20710;BME280;10516;51.518;9.864;2023-06-10T12:11:33;98826.19;;;27.85;49.11
20710;BME280;10516;51.518;9.864;2023-06-10T12:13:58;98821.00;;;27.42;49.48
20710;BME280;10516;51.518;9.864;2023-06-10T12:16:24;98818.38;;;26.95;47.92
20710;BME280;10516;51.518;9.864;2023-06-10T12:18:49;98818.22;;;27.23;47.83
20710;BME280;10516;51.518;9.864;2023-06-10T12:21:19;98808.22;;;27.69;49.85
20710;BME280;10516;51.518;9.864;2023-06-10T12:26:42;98804.47;;;28.86;45.76
20710;BME280;10516;51.518;9.864;2023-06-10T12:29:23;98813.63;;;29.20;44.09
20710;BME280;10516;51.518;9.864;2023-06-10T12:31:56;98804.31;;;29.28;44.39
20710;BME280;10516;51.518;9.864;2023-06-10T12:34:34;98807.75;;;28.69;43.50
20710;BME280;10516;51.518;9.864;2023-06-10T12:37:03;98798.94;;;28.38;44.32
20710;BME280;10516;51.518;9.864;2023-06-10T12:39:33;98809.75;;;27.47;45.94
20710;BME280;10516;51.518;9.864;2023-06-10T12:41:59;98812.41;;;27.82;48.89
20710;BME280;10516;51.518;9.864;2023-06-10T12:44:31;98797.97;;;28.27;49.15
20710;BME280;10516;51.518;9.864;2023-06-10T12:46:57;98801.97;;;28.55;50.91
20710;BME280;10516;51.518;9.864;2023-06-10T12:49:22;98797.00;;;28.61;45.04
20710;BME280;10516;51.518;9.864;2023-06-10T12:51:48;98794.13;;;28.76;44.25
20710;BME280;10516;51.518;9.864;2023-06-10T12:54:13;98795.84;;;28.62;44.37
20710;BME280;10516;51.518;9.864;2023-06-10T12:56:39;98791.84;;;28.14;45.21
20710;BME280;10516;51.518;9.864;2023-06-10T12:59:04;98790.41;;;28.43;45.36
20710;BME280;10516;51.518;9.864;2023-06-10T13:01:31;98789.41;;;28.32;44.23
20710;BME280;10516;51.518;9.864;2023-06-10T13:03:57;98803.53;;;27.69;44.71
20710;BME280;10516;51.518;9.864;2023-06-10T13:06:22;98783.66;;;27.18;45.14
20710;BME280;10516;51.518;9.864;2023-06-10T13:08:48;98791.47;;;27.55;43.93
20710;BME280;10516;51.518;9.864;2023-06-10T13:11:13;98801.75;;;28.18;45.00
20710;BME280;10516;51.518;9.864;2023-06-10T13:13:39;98796.84;;;27.89;42.31
20710;BME280;10516;51.518;9.864;2023-06-10T13:16:05;98799.13;;;27.84;42.47
20710;BME280;10516;51.518;9.864;2023-06-10T13:18:30;98786.38;;;27.95;41.67